Swan Island, Australia
Current Conditions -  °F | °C
As of 7:30 AM on Tuesday 27 Jan 2015 (Local Time) from YMLT Reporting Station
Scattered Clouds Scattered Clouds  
Wind Chill: 52°   Ceiling: Unl
Heat Index: 52°   Visibility: 6mi
Dew Point: 41°   Wind: 6mph
Humidity: 67%   Direction: 160°SSE
Pressure: 30"   Gusts: NA
Location:  40.73°S, 148.12°E
Report Text: YMLT 262030Z AUTO 16005KT 9999 // SCT045 11/05 Q1016
Loading
Personal Weather Stations






























Interactive Weather Map New forecast layout! Learn more

10-Day Weather Forecast

Advertisements
Track Severe Weather on mobile